Time;durP1;ratioP1;P1;durP2;ratioP2;P2;SDS_P1;SDS_P2;PMS_P1;PMS_P2;Temp;Humidity;BMP_temperature;BMP_pressure;BME280_temperature;BME280_humidity;BME280_pressure;Samples;Min_cycle;Max_cycle;Signal;HPM_P1;HPM_P2
2023/02/11 00:00:40;;;;;;;;;62.75;48.75;;;;;9.83;62.72;103213.63;2068723;27;46504;-64
2023/02/11 00:01:40;;;;;;;;;66.60;52.20;;;;;9.82;62.91;103211.81;2062972;28;45822;-64
2023/02/11 00:02:41;;;;;;;;;62.25;50.00;;;;;9.82;62.86;103217.13;2058339;28;46865;-67
2023/02/11 00:03:41;;;;;;;;;60.00;49.50;;;;;9.80;62.66;103208.25;2062392;28;45982;-65
2023/02/11 00:04:41;;;;;;;;;62.50;51.00;;;;;9.80;62.84;103212.66;2092833;27;46637;-66
2023/02/11 00:05:42;;;;;;;;;65.75;53.00;;;;;9.79;63.06;103205.56;2105036;27;46807;-67
2023/02/11 00:06:42;;;;;;;;;61.50;50.75;;;;;9.80;63.13;103202.06;2103346;27;44981;-66
2023/02/11 00:07:42;;;;;;;;;61.00;49.75;;;;;9.79;63.04;103206.47;2091292;27;46760;-66
2023/02/11 00:08:43;;;;;;;;;64.00;52.00;;;;;9.79;62.80;103197.63;2083224;27;46511;-64
2023/02/11 00:09:43;;;;;;;;;64.00;50.00;;;;;9.79;63.04;103194.97;2099552;27;46837;-65
2023/02/11 00:10:45;;;;;;;;;61.75;50.75;;;;;9.78;62.75;103199.34;2084553;27;46388;-65
2023/02/11 00:11:45;;;;;;;;;62.60;50.20;;;;;9.77;62.98;103192.25;2092605;27;46907;-65
2023/02/11 00:12:45;;;;;;;;;67.25;53.75;;;;;9.77;62.97;103194.00;2096649;27;45110;-65
2023/02/11 00:13:46;;;;;;;;;65.50;53.00;;;;;9.78;62.85;103198.44;2085084;27;46448;-64
2023/02/11 00:14:46;;;;;;;;;63.50;52.00;;;;;9.77;63.11;103192.25;2105001;27;46755;-66
2023/02/11 00:15:47;;;;;;;;;66.25;52.00;;;;;9.79;63.24;103194.97;2078287;27;46734;-65
2023/02/11 00:16:47;;;;;;;;;62.50;50.25;;;;;9.78;63.20;103193.16;2082971;27;46026;-65
2023/02/11 00:17:48;;;;;;;;;63.75;51.75;;;;;9.77;63.14;103192.25;2082827;27;46291;-67
2023/02/11 00:18:49;;;;;;;;;63.50;51.00;;;;;9.77;62.98;103192.25;2080853;27;46186;-65
2023/02/11 00:19:50;;;;;;;;;66.75;52.00;;;;;9.77;63.43;103189.59;2094773;27;46266;-65
2023/02/11 00:20:50;;;;;;;;;59.20;49.00;;;;;9.76;63.16;103190.47;2088562;27;46705;-65
2023/02/11 00:21:51;;;;;;;;;64.75;51.75;;;;;9.76;63.27;103185.16;2083770;27;45118;-65
2023/02/11 00:22:51;;;;;;;;;65.75;52.00;;;;;9.77;63.13;103186.94;2074708;27;46260;-65
2023/02/11 00:23:53;;;;;;;;;64.25;50.25;;;;;9.77;63.13;103192.25;2084415;27;45193;-64
2023/02/11 00:24:55;;;;;;;;;66.60;53.00;;;;;9.77;63.27;103186.94;2075890;27;46781;-65
2023/02/11 00:25:56;;;;;;;;;61.00;50.60;;;;;9.78;63.16;103187.84;2072581;27;46558;-66
2023/02/11 00:26:56;;;;;;;;;61.00;50.00;;;;;9.78;63.15;103193.16;2081712;27;47084;-65
2023/02/11 00:27:57;;;;;;;;;59.50;48.50;;;;;9.78;63.15;103193.16;2096996;27;46169;-65
2023/02/11 00:28:57;;;;;;;;;60.25;50.00;;;;;9.77;63.32;103189.59;2095775;27;46331;-64
2023/02/11 00:29:59;;;;;;;;;68.00;54.00;;;;;9.78;63.25;103190.50;2082388;27;46648;-65
2023/02/11 00:31:01;;;;;;;;;63.20;52.80;;;;;9.77;63.35;103186.94;2104129;27;45194;-66
2023/02/11 00:32:04;;;;;;;;;66.80;54.20;;;;;9.78;63.21;103185.19;2103877;27;46853;-64
2023/02/11 00:33:04;;;;;;;;;58.60;48.20;;;;;9.77;63.37;103186.06;2110979;27;46601;-65
2023/02/11 00:34:04;;;;;;;;;63.25;51.75;;;;;9.74;63.29;103185.13;2106517;27;46786;-66
2023/02/11 00:35:05;;;;;;;;;63.75;50.25;;;;;9.76;63.55;103192.22;2104083;27;46863;-64
2023/02/11 00:36:08;;;;;;;;;64.75;51.50;;;;;9.73;63.35;103190.41;2092281;28;46367;-64
2023/02/11 00:37:09;;;;;;;;;67.00;52.40;;;;;9.73;63.55;103190.41;2090653;28;46862;-64
2023/02/11 00:38:10;;;;;;;;;61.40;49.80;;;;;9.72;63.44;103184.22;2104307;27;46863;-65
2023/02/11 00:39:10;;;;;;;;;61.75;49.75;;;;;9.74;63.33;103186.88;2107813;27;46794;-65
2023/02/11 00:40:11;;;;;;;;;65.50;51.75;;;;;9.71;63.28;103186.84;2108728;27;46635;-65
2023/02/11 00:41:12;;;;;;;;;63.00;50.75;;;;;9.70;63.25;103179.75;2104057;27;46438;-63
2023/02/11 00:42:14;;;;;;;;;61.20;50.00;;;;;9.70;63.35;103182.41;2101351;27;46724;-65
2023/02/11 00:43:14;;;;;;;;;61.00;50.00;;;;;9.68;63.44;103187.66;2104246;27;46749;-64
2023/02/11 00:44:14;;;;;;;;;58.50;48.00;;;;;9.67;63.39;103182.34;2108736;27;46322;-64
2023/02/11 00:45:15;;;;;;;;;60.50;50.00;;;;;9.65;63.41;103184.94;2097856;28;46757;-65
2023/02/11 00:46:15;;;;;;;;;62.75;50.50;;;;;9.65;63.44;103187.56;2095721;28;46864;-64
2023/02/11 00:47:15;;;;;;;;;63.25;51.25;;;;;9.65;63.45;103184.03;2106245;27;46823;-65
2023/02/11 00:48:16;;;;;;;;;61.75;50.00;;;;;9.64;63.46;103187.53;2107966;27;46677;-64
2023/02/11 00:49:16;;;;;;;;;62.75;51.25;;;;;9.64;63.54;103192.84;2109613;27;45978;-64
2023/02/11 00:50:17;;;;;;;;;65.25;52.50;;;;;9.63;63.59;103183.09;2104158;27;46275;-64
2023/02/11 00:51:17;;;;;;;;;63.75;51.50;;;;;9.61;63.83;103184.84;2103556;27;45935;-64
2023/02/11 00:52:17;;;;;;;;;66.75;51.75;;;;;9.62;63.88;103189.28;2106933;27;46496;-64
2023/02/11 00:53:18;;;;;;;;;61.50;51.00;;;;;9.60;63.37;103185.69;2090977;28;45539;-65
2023/02/11 00:54:18;;;;;;;;;63.25;52.25;;;;;9.59;63.44;103179.50;2101117;28;46661;-65
2023/02/11 00:55:18;;;;;;;;;62.50;50.50;;;;;9.59;63.98;103186.56;2105327;27;45532;-66
2023/02/11 00:56:19;;;;;;;;;61.00;49.75;;;;;9.59;63.58;103179.50;2108935;27;46934;-66
2023/02/11 00:57:20;;;;;;;;;61.75;49.00;;;;;9.59;63.65;103174.22;2107960;27;46602;-67
2023/02/11 00:58:21;;;;;;;;;63.25;49.75;;;;;9.60;63.45;103175.09;2105327;27;46642;-65
2023/02/11 00:59:21;;;;;;;;;61.20;51.00;;;;;9.59;63.66;103181.25;2102152;27;47028;-65
2023/02/11 01:00:22;;;;;;;;;61.00;50.75;;;;;9.59;63.88;103183.91;2101322;27;46313;-65
2023/02/11 01:01:23;;;;;;;;;66.00;52.75;;;;;9.56;63.79;103176.81;2106680;27;46742;-64
2023/02/11 01:02:23;;;;;;;;;63.20;51.60;;;;;9.57;63.63;103178.59;2103367;27;46223;-65
2023/02/11 01:03:24;;;;;;;;;61.75;51.00;;;;;9.57;63.79;103186.53;2075119;27;45976;-65
2023/02/11 01:04:24;;;;;;;;;62.50;51.50;;;;;9.58;63.93;103188.31;2073356;27;46511;-65
2023/02/11 01:05:24;;;;;;;;;65.25;53.25;;;;;9.58;63.89;103180.38;2064670;28;46261;-65
2023/02/11 01:06:25;;;;;;;;;61.25;50.50;;;;;9.58;64.03;103175.06;2062045;28;46813;-64
2023/02/11 01:07:26;;;;;;;;;67.00;53.25;;;;;9.58;63.59;103172.41;2070166;28;46331;-63
2023/02/11 01:08:27;;;;;;;;;60.80;49.80;;;;;9.58;63.66;103175.06;2070427;28;46742;-64
2023/02/11 01:09:27;;;;;;;;;64.00;52.50;;;;;9.59;63.79;103168.00;2070618;28;46372;-65
2023/02/11 01:10:27;;;;;;;;;68.00;53.50;;;;;9.58;63.76;103168.88;2054126;28;45451;-65
2023/02/11 01:11:28;;;;;;;;;62.25;51.75;;;;;9.58;63.91;103163.56;2054059;28;45512;-66
2023/02/11 01:12:28;;;;;;;;;62.75;51.25;;;;;9.58;63.85;103163.56;2070601;27;46441;-65
2023/02/11 01:13:31;;;;;;;;;65.25;52.75;;;;;9.58;63.85;103161.81;2070848;28;46547;-65
2023/02/11 01:14:31;;;;;;;;;63.40;50.40;;;;;9.59;63.77;103163.59;2061915;28;46680;-65
2023/02/11 01:15:32;;;;;;;;;62.75;51.25;;;;;9.60;63.98;103167.16;2061776;28;46747;-65
2023/02/11 01:16:32;;;;;;;;;66.50;52.75;;;;;9.61;64.00;103171.59;2061811;28;46699;-64
2023/02/11 01:17:34;;;;;;;;;65.25;53.25;;;;;9.62;63.76;103170.72;2061865;28;46357;-64
2023/02/11 01:18:35;;;;;;;;;62.20;50.20;;;;;9.63;63.83;103170.75;2067322;28;45809;-64
2023/02/11 01:19:37;;;;;;;;;64.20;52.40;;;;;9.63;63.79;103177.81;2070546;27;46320;-65
2023/02/11 01:20:37;;;;;;;;;61.00;48.80;;;;;9.65;64.00;103176.06;2077900;28;46444;-64
2023/02/11 01:21:37;;;;;;;;;67.75;54.50;;;;;9.64;63.77;103174.28;2074012;28;45273;-64
2023/02/11 01:22:38;;;;;;;;;66.25;53.00;;;;;9.64;64.14;103171.63;2058842;28;45907;-64
2023/02/11 01:23:38;;;;;;;;;62.00;50.75;;;;;9.63;63.68;103173.41;2061628;28;46577;-64
2023/02/11 01:24:39;;;;;;;;;65.75;52.75;;;;;9.62;63.84;103166.31;2070951;28;46636;-64
2023/02/11 01:25:39;;;;;;;;;64.00;51.25;;;;;9.61;63.84;103172.47;2078737;28;45927;-65
2023/02/11 01:26:39;;;;;;;;;62.75;51.25;;;;;9.61;63.75;103171.59;2074795;27;46668;-64
2023/02/11 01:27:40;;;;;;;;;64.50;53.00;;;;;9.60;63.89;103168.03;2070596;27;46773;-66
2023/02/11 01:28:40;;;;;;;;;66.75;54.00;;;;;9.60;63.76;103168.03;2069875;27;46540;-67
2023/02/11 01:29:40;;;;;;;;;63.75;51.50;;;;;9.61;63.72;103167.19;2069886;28;46937;-64
2023/02/11 01:30:41;;;;;;;;;65.25;53.00;;;;;9.60;63.67;103162.75;2068277;28;46142;-66
2023/02/11 01:31:41;;;;;;;;;53.25;44.50;;;;;9.60;64.10;103168.03;2070311;27;45113;-66
2023/02/11 01:32:41;;;;;;;;;62.50;50.00;;;;;9.62;63.90;103165.41;2070475;27;45615;-65
2023/02/11 01:33:42;;;;;;;;;63.00;51.75;;;;;9.62;63.75;103165.41;2070167;28;46157;-64
2023/02/11 01:34:42;;;;;;;;;61.75;50.75;;;;;9.62;63.75;103160.13;2070324;27;46669;-64
2023/02/11 01:35:43;;;;;;;;;59.50;50.25;;;;;9.61;63.79;103166.28;2069897;27;46586;-65
2023/02/11 01:36:43;;;;;;;;;63.50;52.25;;;;;9.62;63.96;103160.13;2070296;27;46397;-64
2023/02/11 01:37:44;;;;;;;;;63.25;51.00;;;;;9.61;63.84;103164.53;2070391;27;45096;-65
2023/02/11 01:38:44;;;;;;;;;62.75;51.00;;;;;9.63;63.94;103168.09;2070557;27;46237;-65
2023/02/11 01:39:44;;;;;;;;;63.75;51.50;;;;;9.63;63.72;103160.13;2086344;28;46488;-66
2023/02/11 01:40:50;;;;;;;;;65.75;53.00;;;;;9.64;63.90;103158.38;2090597;28;46442;-65
2023/02/11 01:41:51;;;;;;;;;65.40;52.00;;;;;9.65;63.99;103166.38;2103024;28;46346;-64
2023/02/11 01:42:51;;;;;;;;;60.80;49.60;;;;;9.64;63.87;103167.22;2095440;28;47097;-64
2023/02/11 01:43:52;;;;;;;;;62.25;50.25;;;;;9.65;63.81;103162.81;2095286;28;45365;-63
2023/02/11 01:44:53;;;;;;;;;62.25;51.75;;;;;9.66;64.08;103168.19;2086358;28;46303;-63
2023/02/11 01:46:22;;;;;;;;;63.00;50.20;;;;;9.67;63.87;103167.31;2086411;28;45922;-64
2023/02/11 01:47:22;;;;;;;;;66.80;53.20;;;;;9.67;63.92;103172.63;2089243;28;46850;-63
2023/02/11 01:48:46;;;;;;;;;62.20;51.00;;;;;9.68;63.92;103174.41;2094268;28;46793;-65
2023/02/11 01:49:51;;;;;;;;;59.40;50.40;;;;;9.68;63.92;103173.53;2087086;28;46287;-63
2023/02/11 01:50:58;;;;;;;;;60.20;50.00;;;;;9.68;64.01;103163.81;2091095;28;47168;-63
2023/02/11 01:52:07;;;;;;;;;64.80;52.80;;;;;9.68;64.09;103166.47;2095445;28;46712;-64
2023/02/11 01:57:21;;;;;;;;;64.00;52.40;;;;;9.70;64.00;103163.84;2095459;28;46311;-66
2023/02/11 01:58:21;;;;;;;;;65.80;54.00;;;;;9.70;63.69;103163.84;2095831;28;46439;-66
2023/02/11 01:59:29;;;;;;;;;66.50;53.00;;;;;9.70;63.75;103164.72;2095688;28;45659;-64
2023/02/11 02:00:35;;;;;;;;;64.80;53.60;;;;;9.70;63.96;103166.50;2095018;28;46581;-64
2023/02/11 02:01:37;;;;;;;;;64.00;52.60;;;;;9.69;63.48;103162.94;2095339;28;46741;-65
2023/02/11 02:02:56;;;;;;;;;68.00;54.60;;;;;9.69;63.67;103165.59;2094803;28;46729;-65
2023/02/11 02:04:00;;;;;;;;;69.00;54.60;;;;;9.68;63.82;103162.91;2093523;28;47168;-64
2023/02/11 02:05:29;;;;;;;;;70.20;55.60;;;;;9.68;63.82;103162.91;2096709;28;47301;-64
2023/02/11 02:06:47;;;;;;;;;70.60;56.20;;;;;9.69;63.62;103159.41;2062301;28;46639;-64
2023/02/11 02:08:02;;;;;;;;;65.00;53.80;;;;;9.67;63.24;103159.38;2061858;28;45700;-64
2023/02/11 02:09:10;;;;;;;;;68.60;54.20;;;;;9.68;63.26;103157.59;2061813;28;46501;-64
2023/02/11 02:10:16;;;;;;;;;66.00;52.20;;;;;9.68;63.38;103161.16;2062539;28;45823;-64
2023/02/11 02:11:16;;;;;;;;;65.20;52.40;;;;;9.68;63.51;103162.91;2064816;28;47003;-64
2023/02/11 02:12:16;;;;;;;;;68.50;55.00;;;;;9.67;63.54;103155.81;2078385;28;46813;-65
2023/02/11 02:13:17;;;;;;;;;63.50;52.00;;;;;9.66;63.53;103154.03;2078681;28;46475;-64
2023/02/11 02:14:18;;;;;;;;;72.75;58.00;;;;;9.66;63.76;103154.03;2078710;28;46578;-66
2023/02/11 02:15:22;;;;;;;;;64.75;53.25;;;;;9.64;63.68;103159.28;2078628;28;46935;-65
2023/02/11 02:16:30;;;;;;;;;67.00;54.60;;;;;9.63;63.49;103148.66;2078886;28;46769;-65
2023/02/11 02:17:44;;;;;;;;;67.60;53.40;;;;;9.62;63.38;103158.34;2070164;28;46862;-64
2023/02/11 02:19:13;;;;;;;;;69.00;56.80;;;;;9.62;63.58;103147.75;2065431;28;46348;-66
2023/02/11 02:20:40;;;;;;;;;67.60;55.20;;;;;9.62;63.67;103146.84;2078361;28;46660;-64
2023/02/11 02:22:18;;;;;;;;;68.20;54.80;;;;;9.60;63.64;103148.59;2078688;28;46348;-65
2023/02/11 02:23:41;;;;;;;;;67.60;54.40;;;;;9.60;63.36;103146.81;2078736;28;46959;-64
2023/02/11 02:24:59;;;;;;;;;67.80;53.80;;;;;9.59;63.46;103139.75;2078491;28;45814;-65
2023/02/11 02:26:26;;;;;;;;;63.20;51.80;;;;;9.59;63.33;103134.44;2078203;28;46904;-64
2023/02/11 02:27:26;;;;;;;;;65.60;52.40;;;;;9.59;63.37;103134.44;2078469;28;46901;-64
2023/02/11 02:28:50;;;;;;;;;67.50;53.50;;;;;9.60;63.38;103137.97;2077794;28;46464;-64
2023/02/11 02:30:23;;;;;;;;;71.00;53.60;;;;;9.59;63.37;103136.19;2078410;28;46934;-64
2023/02/11 02:31:59;;;;;;;;;66.00;53.40;;;;;9.58;63.17;103139.72;2077206;28;45439;-64
2023/02/11 02:33:29;;;;;;;;;69.20;55.80;;;;;9.57;63.37;103141.47;2068753;28;46401;-63
2023/02/11 02:34:55;;;;;;;;;71.20;56.80;;;;;9.56;63.51;103144.09;2070314;28;46406;-64
2023/02/11 02:36:06;;;;;;;;;72.60;58.60;;;;;9.56;63.30;103133.50;2037715;28;45692;-66
2023/02/11 02:37:30;;;;;;;;;69.00;55.40;;;;;9.56;63.41;103138.78;2037885;28;46908;-64
2023/02/11 02:38:38;;;;;;;;;70.80;55.80;;;;;9.54;63.53;103141.41;2037748;28;45195;-65
2023/02/11 02:39:38;;;;;;;;;72.40;58.00;;;;;9.53;63.56;103139.63;2031814;28;45608;-65
2023/02/11 02:40:49;;;;;;;;;63.25;50.75;;;;;9.52;63.62;103137.81;2036582;28;46819;-65
2023/02/11 02:41:50;;;;;;;;;71.20;56.80;;;;;9.53;63.55;103136.97;2026329;29;46464;-65
2023/02/11 02:42:52;;;;;;;;;71.80;57.00;;;;;9.53;63.40;103133.41;2036574;28;46486;-64
2023/02/11 02:43:53;;;;;;;;;71.60;55.60;;;;;9.53;63.61;103141.34;2028550;28;46238;-64
2023/02/11 02:44:54;;;;;;;;;68.25;55.00;;;;;9.53;63.29;103136.97;2021185;28;46460;-65
2023/02/11 02:46:07;;;;;;;;;68.60;56.40;;;;;9.53;63.55;103139.63;2020450;28;46934;-64
2023/02/11 02:47:08;;;;;;;;;69.60;54.80;;;;;9.52;63.52;103137.81;2021260;28;46709;-65
2023/02/11 02:48:40;;;;;;;;;72.50;55.75;;;;;9.52;63.34;103136.91;2021168;28;46164;-66
2023/02/11 02:49:41;;;;;;;;;69.80;55.80;;;;;9.50;63.54;103134.22;2046358;28;45507;-64
2023/02/11 02:50:41;;;;;;;;;69.50;55.75;;;;;9.49;63.58;103129.81;2045373;28;46440;-65
2023/02/11 02:51:55;;;;;;;;;74.50;59.25;;;;;9.50;63.44;103134.22;2045574;28;46197;-65
2023/02/11 02:53:40;;;;;;;;;71.00;57.00;;;;;9.50;63.64;103136.00;2044848;28;46959;-64
2023/02/11 02:55:17;;;;;;;;;72.00;57.00;;;;;9.48;63.37;103132.41;2034046;28;46638;-66
2023/02/11 02:56:32;;;;;;;;;71.20;57.20;;;;;9.48;63.42;103127.13;2030784;28;45558;-65
2023/02/11 02:58:03;;;;;;;;;71.60;56.20;;;;;9.48;63.58;103122.72;2032907;28;47133;-64
2023/02/11 02:59:09;;;;;;;;;72.80;58.40;;;;;9.48;63.51;103128.00;2032568;28;46819;-65
2023/02/11 03:00:40;;;;;;;;;72.60;58.20;;;;;9.46;63.40;103129.75;2031849;28;46621;-64
2023/02/11 03:01:56;;;;;;;;;71.60;57.60;;;;;9.47;63.67;103134.19;2029641;29;46986;-63
2023/02/11 03:03:14;;;;;;;;;73.00;58.40;;;;;9.46;63.66;103132.41;2029089;28;46753;-64
2023/02/11 03:04:33;;;;;;;;;75.00;58.20;;;;;9.44;63.45;103124.41;2030989;28;46515;-64
2023/02/11 03:05:42;;;;;;;;;67.80;54.60;;;;;9.43;63.68;103121.72;2028266;28;45787;-63
2023/02/11 03:06:51;;;;;;;;;70.80;57.20;;;;;9.42;63.59;103122.59;2036788;28;45080;-64
2023/02/11 03:08:01;;;;;;;;;76.00;59.60;;;;;9.42;63.55;103122.59;2035437;28;47236;-64
2023/02/11 03:09:08;;;;;;;;;74.40;58.00;;;;;9.40;63.80;103119.91;2024097;29;46437;-64
2023/02/11 03:10:14;;;;;;;;;71.00;57.00;;;;;9.39;63.58;103118.09;2028082;29;46557;-64
2023/02/11 03:11:18;;;;;;;;;72.60;59.20;;;;;9.39;63.64;103126.03;2037737;28;46740;-64
2023/02/11 03:12:20;;;;;;;;;69.00;56.20;;;;;9.39;63.71;103126.03;2031320;28;46472;-63
2023/02/11 03:13:26;;;;;;;;;73.60;59.60;;;;;9.39;63.63;103119.84;2038783;28;46467;-64
2023/02/11 03:14:29;;;;;;;;;72.20;58.00;;;;;9.39;63.34;103118.09;2039158;28;46901;-65
2023/02/11 03:15:33;;;;;;;;;71.20;56.80;;;;;9.40;63.76;103125.22;2038885;28;46499;-64
2023/02/11 03:16:37;;;;;;;;;72.40;57.80;;;;;9.40;63.52;103121.63;2034614;28;47316;-65
2023/02/11 03:17:42;;;;;;;;;74.40;57.00;;;;;9.39;63.60;103125.16;2038719;28;45720;-66
2023/02/11 03:18:49;;;;;;;;;71.40;57.20;;;;;9.39;63.60;103122.50;2039756;28;45699;-64
2023/02/11 03:19:50;;;;;;;;;70.80;56.80;;;;;9.38;63.61;103120.72;2038804;28;46437;-64
2023/02/11 03:20:53;;;;;;;;;71.00;56.80;;;;;9.39;63.57;103122.50;2038837;28;47002;-64
2023/02/11 03:21:55;;;;;;;;;70.20;57.40;;;;;9.40;63.33;103124.28;2039148;28;46803;-64
2023/02/11 03:23:07;;;;;;;;;65.40;51.40;;;;;9.39;63.73;103115.44;2039060;28;46604;-65
2023/02/11 03:24:15;;;;;;;;;73.40;56.00;;;;;9.39;63.86;103118.09;2038213;28;46430;-64
2023/02/11 03:25:16;;;;;;;;;69.60;55.80;;;;;9.38;63.68;103118.06;2032065;28;46750;-65
2023/02/11 03:26:27;;;;;;;;;69.25;55.50;;;;;9.39;63.75;103114.56;2068718;28;46288;-65
2023/02/11 03:27:35;;;;;;;;;67.60;55.00;;;;;9.37;63.68;103117.19;2079456;28;46788;-63
2023/02/11 03:29:02;;;;;;;;;67.20;54.60;;;;;9.37;63.80;103106.56;2078323;28;45712;-65
2023/02/11 03:30:20;;;;;;;;;70.40;55.60;;;;;9.37;63.65;103110.97;2062861;27;46355;-64
2023/02/11 03:31:33;;;;;;;;;72.00;57.20;;;;;9.37;63.67;103113.63;2062980;28;46505;-64
2023/02/11 03:32:40;;;;;;;;;67.20;53.80;;;;;9.37;63.83;103110.97;2070548;27;47212;-64
2023/02/11 03:33:50;;;;;;;;;68.80;55.40;;;;;9.36;63.61;103110.09;2071009;27;46386;-63
2023/02/11 03:35:16;;;;;;;;;65.40;52.00;;;;;9.36;63.76;103118.03;2071164;27;46432;-64
2023/02/11 03:36:25;;;;;;;;;70.75;56.75;;;;;9.35;63.75;103113.59;2071020;27;46654;-64
2023/02/11 03:37:44;;;;;;;;;67.00;53.75;;;;;9.34;63.87;103103.88;2054920;28;46101;-64
2023/02/11 03:38:49;;;;;;;;;70.75;57.00;;;;;9.36;63.42;103114.50;2056758;28;46730;-64
2023/02/11 03:40:01;;;;;;;;;70.75;56.25;;;;;9.34;63.73;103117.13;2062647;28;47212;-64
2023/02/11 03:41:05;;;;;;;;;70.25;57.00;;;;;9.32;63.85;103117.94;2062829;28;46299;-64
2023/02/11 03:42:08;;;;;;;;;70.25;57.25;;;;;9.32;63.75;103118.84;2068168;27;46689;-63
2023/02/11 03:43:18;;;;;;;;;66.00;54.25;;;;;9.33;63.89;103112.69;2070231;28;47781;-64
2023/02/11 03:44:21;;;;;;;;;70.50;56.25;;;;;9.31;63.83;103110.88;2070515;27;45840;-65
2023/02/11 03:45:23;;;;;;;;;67.25;55.00;;;;;9.32;63.68;103107.34;2061454;28;46233;-63
2023/02/11 03:46:31;;;;;;;;;71.50;57.25;;;;;9.32;63.86;103112.66;2062381;28;46752;-64
2023/02/11 03:47:36;;;;;;;;;69.00;55.25;;;;;9.30;63.78;103112.63;2070794;28;46500;-63
2023/02/11 03:48:42;;;;;;;;;72.25;58.75;;;;;9.29;63.79;103116.13;2071155;28;46488;-64
2023/02/11 03:49:48;;;;;;;;;73.80;59.00;;;;;9.29;63.84;103110.84;2071069;28;46488;-65
2023/02/11 03:50:51;;;;;;;;;72.80;58.40;;;;;9.29;63.67;103115.25;2070905;28;46816;-65
2023/02/11 03:51:53;;;;;;;;;72.25;57.50;;;;;9.28;63.62;103110.81;2071082;27;46389;-64
2023/02/11 03:52:56;;;;;;;;;75.75;57.75;;;;;9.25;63.71;103108.97;2070752;27;45700;-64
2023/02/11 03:54:00;;;;;;;;;71.75;57.25;;;;;9.24;63.86;103106.28;2071226;27;46563;-65
2023/02/11 03:55:07;;;;;;;;;71.60;57.40;;;;;9.24;63.88;103103.63;2069870;27;46911;-64
2023/02/11 03:56:14;;;;;;;;;72.50;58.25;;;;;9.23;63.77;103099.19;2071376;27;46077;-64
2023/02/11 03:57:14;;;;;;;;;70.50;57.00;;;;;9.21;63.91;103101.81;2070810;27;47055;-63
2023/02/11 03:58:15;;;;;;;;;69.00;54.50;;;;;9.22;63.79;103108.00;2064769;27;46319;-65
2023/02/11 03:59:15;;;;;;;;;68.75;56.00;;;;;9.20;64.17;103105.31;2063100;28;46786;-63
2023/02/11 04:00:16;;;;;;;;;70.25;55.50;;;;;9.20;64.17;103109.72;2062598;28;46794;-64
2023/02/11 04:01:16;;;;;;;;;72.00;59.00;;;;;9.20;64.06;103112.38;2065743;27;46284;-64
2023/02/11 04:02:17;;;;;;;;;73.50;57.75;;;;;9.21;64.17;103108.88;2064974;28;46463;-64
2023/02/11 04:03:17;;;;;;;;;72.00;57.75;;;;;9.21;63.85;103111.53;2070093;28;46733;-64
2023/02/11 04:04:18;;;;;;;;;75.25;58.50;;;;;9.21;64.15;103109.75;2067346;28;45091;-64
2023/02/11 04:05:19;;;;;;;;;75.25;59.75;;;;;9.22;64.25;103108.00;2062986;28;46709;-64
2023/02/11 04:06:20;;;;;;;;;74.50;59.75;;;;;9.21;64.16;103109.75;2070584;27;46740;-65
2023/02/11 04:07:20;;;;;;;;;75.25;64.00;;;;;9.21;64.04;103112.41;2071201;27;46966;-66
2023/02/11 04:08:20;;;;;;;;;71.50;56.75;;;;;9.20;63.99;103107.97;2071014;28;46652;-65
2023/02/11 04:09:21;;;;;;;;;75.25;59.25;;;;;9.21;64.21;103107.13;2071241;28;45663;-66
2023/02/11 04:10:21;;;;;;;;;71.00;58.00;;;;;9.21;64.00;103115.06;2070111;28;46080;-65
2023/02/11 04:11:22;;;;;;;;;75.00;59.00;;;;;9.21;64.11;103107.13;2071030;28;46398;-66
2023/02/11 04:12:22;;;;;;;;;71.25;58.00;;;;;9.22;64.22;103114.19;2068881;28;46452;-64
2023/02/11 04:13:22;;;;;;;;;69.75;57.00;;;;;9.21;64.17;103109.75;2062557;28;46146;-64
2023/02/11 04:14:23;;;;;;;;;74.25;58.25;;;;;9.22;64.18;103114.19;2067742;27;46605;-68
2023/02/11 04:15:24;;;;;;;;;74.50;59.75;;;;;9.23;63.80;103113.34;2071025;27;46731;-65
2023/02/11 04:16:24;;;;;;;;;77.25;62.00;;;;;9.23;64.39;103112.44;2113467;27;46986;-64
2023/02/11 04:17:24;;;;;;;;;71.75;58.75;;;;;9.22;64.07;103116.84;2096379;27;46838;-63
2023/02/11 04:18:25;;;;;;;;;70.00;57.00;;;;;9.23;64.05;103113.34;2071019;28;46694;-65
2023/02/11 04:19:25;;;;;;;;;68.75;54.75;;;;;9.23;64.15;103117.75;2070728;27;46478;-64
2023/02/11 04:20:25;;;;;;;;;74.25;59.00;;;;;9.23;64.22;103112.44;2070658;27;46174;-64
2023/02/11 04:21:26;;;;;;;;;72.50;59.00;;;;;9.22;64.15;103115.94;2070936;27;47118;-64
2023/02/11 04:22:26;;;;;;;;;74.75;59.75;;;;;9.22;64.13;103118.59;2073538;28;46322;-64
2023/02/11 04:23:27;;;;;;;;;73.50;58.25;;;;;9.22;63.90;103118.59;2086152;28;45834;-64
2023/02/11 04:24:27;;;;;;;;;71.25;57.75;;;;;9.21;64.10;103117.72;2100572;27;46107;-63
2023/02/11 04:25:28;;;;;;;;;73.50;59.00;;;;;9.21;64.01;103122.13;2103166;27;46260;-64
2023/02/11 04:26:28;;;;;;;;;65.75;52.25;;;;;9.21;64.12;103123.00;2112921;27;46920;-65
2023/02/11 04:27:28;;;;;;;;;72.50;58.75;;;;;9.21;63.99;103120.34;2102831;27;46336;-64
2023/02/11 04:28:30;;;;;;;;;75.25;60.00;;;;;9.21;64.24;103122.13;2105791;27;46221;-64
2023/02/11 04:29:30;;;;;;;;;75.00;60.25;;;;;9.21;64.06;103123.00;2110518;27;46810;-64
2023/02/11 04:30:31;;;;;;;;;74.50;60.25;;;;;9.21;64.23;103127.41;2081317;28;47641;-63
2023/02/11 04:31:31;;;;;;;;;70.25;54.75;;;;;9.20;64.29;103121.22;2062380;28;45867;-64
2023/02/11 04:32:31;;;;;;;;;73.50;59.25;;;;;9.20;64.31;103129.16;2104015;27;46848;-63
2023/02/11 04:33:32;;;;;;;;;74.00;59.25;;;;;9.21;64.15;103128.31;2102513;27;46623;-64
2023/02/11 04:34:32;;;;;;;;;74.00;58.00;;;;;9.23;64.35;103133.63;2069214;28;46540;-65
2023/02/11 04:35:32;;;;;;;;;76.50;61.25;;;;;9.22;64.24;103130.09;2087040;28;46676;-63
2023/02/11 04:36:33;;;;;;;;;67.25;54.50;;;;;9.23;64.06;103128.34;2095979;27;46977;-64
2023/02/11 04:37:34;;;;;;;;;75.00;56.50;;;;;9.22;64.19;103132.75;2110587;27;46793;-65
2023/02/11 04:38:34;;;;;;;;;76.00;60.25;;;;;9.21;64.05;103132.72;2093605;28;46981;-65
2023/02/11 04:39:34;;;;;;;;;72.00;58.75;;;;;9.20;64.04;103126.53;2082550;28;46794;-65
2023/02/11 04:40:35;;;;;;;;;72.00;57.25;;;;;9.18;64.16;103128.25;2103462;27;46571;-64
2023/02/11 04:41:35;;;;;;;;;74.75;59.25;;;;;9.18;64.02;103130.91;2102063;27;46662;-64
2023/02/11 04:42:36;;;;;;;;;77.50;62.00;;;;;9.18;64.05;103132.66;2104423;28;46420;-64
2023/02/11 04:43:36;;;;;;;;;71.25;57.00;;;;;9.16;64.09;103129.06;2093684;27;46145;-64
2023/02/11 04:44:36;;;;;;;;;71.25;57.25;;;;;9.17;64.08;103133.50;2096325;28;46246;-64
2023/02/11 04:45:36;;;;;;;;;73.50;59.00;;;;;9.16;64.29;103129.97;2084709;28;45225;-64
2023/02/11 04:46:37;;;;;;;;;66.50;53.75;;;;;9.16;64.38;103126.44;2084945;28;46812;-63
2023/02/11 04:47:37;;;;;;;;;71.25;58.75;;;;;9.15;64.06;103125.53;2086682;28;46499;-64
2023/02/11 04:48:38;;;;;;;;;74.25;58.75;;;;;9.14;64.25;103124.59;2077727;28;46326;-65
2023/02/11 04:49:38;;;;;;;;;76.50;60.50;;;;;9.13;64.22;103122.81;2085209;28;46379;-65
2023/02/11 04:50:38;;;;;;;;;73.25;57.00;;;;;9.13;64.59;103125.47;2068019;28;45633;-66
2023/02/11 04:51:39;;;;;;;;;74.25;59.00;;;;;9.12;64.21;103121.03;2061247;28;46470;-65
2023/02/11 04:52:39;;;;;;;;;75.25;61.25;;;;;9.12;64.12;103126.34;2080693;28;46687;-65
2023/02/11 04:53:40;;;;;;;;;69.75;56.50;;;;;9.12;64.37;103121.03;2093417;28;47416;-65
2023/02/11 04:54:40;;;;;;;;;54.75;45.00;;;;;9.11;64.14;103118.34;2088912;28;45359;-65
2023/02/11 04:55:41;;;;;;;;;76.00;59.00;;;;;9.11;64.11;103119.25;2053639;28;46705;-66
2023/02/11 04:56:41;;;;;;;;;74.50;59.50;;;;;9.12;64.34;103118.38;2083663;28;46916;-66
2023/02/11 04:57:41;;;;;;;;;76.75;62.00;;;;;9.12;64.06;103118.38;2083972;28;46743;-65
2023/02/11 04:58:42;;;;;;;;;73.75;59.75;;;;;9.13;64.17;103119.28;2087845;28;45759;-66
2023/02/11 04:59:42;;;;;;;;;72.75;59.50;;;;;9.12;64.06;103115.75;2093000;28;46104;-65
2023/02/11 05:00:42;;;;;;;;;75.00;59.00;;;;;9.12;64.34;103109.53;2065135;28;45984;-64
2023/02/11 05:01:43;;;;;;;;;72.50;58.00;;;;;9.12;64.05;103117.50;2091946;28;46276;-65